Time;durP1;ratioP1;P1;durP2;ratioP2;P2;SDS_P1;SDS_P2;PMS_P1;PMS_P2;Temp;Humidity;BMP_temperature;BMP_pressure;BME280_temperature;BME280_humidity;BME280_pressure;Samples;Min_cycle;Max_cycle;Signal;HPM_P1;HPM_P2
2021/03/17 02:14:35;;;;;;;63.77;39.70;;;8.30;99.90;;;;;;6096615;23;20198;-94
2021/03/17 02:17:57;;;;;;;;;;;;;;;;;;;;;
2021/03/17 02:24:43;;;;;;;;;;;;;;;;;;;;;
2021/03/17 02:46:10;;;;;;;;;;;;;;;;;;;;;
2021/03/17 03:58:52;;;;;;;;;;;;;;;;;;;;;
2021/03/17 04:01:57;;;;;;;;;;;;;;;;;;;;;
2021/03/17 04:08:12;;;;;;;;;;;;;;;;;;;;;
2021/03/17 04:11:24;;;;;;;45.87;29.77;;;8.00;99.90;;;;;;6086823;23;20158;-92
2021/03/17 04:17:24;;;;;;;;;;;;;;;;;;;;;
2021/03/17 04:23:42;;;;;;;52.80;34.23;;;8.00;99.90;;;;;;6074530;23;20154;-93
2021/03/17 04:26:22;;;;;;;54.00;35.33;;;7.90;99.90;;;;;;6098793;23;20525;-92
2021/03/17 04:29:47;;;;;;;49.07;33.63;;;7.90;99.90;;;;;;6148523;23;20584;-92
2021/03/17 04:32:21;;;;;;;55.97;35.17;;;7.80;99.90;;;;;;6067039;23;20489;-92
2021/03/17 04:35:20;;;;;;;54.67;35.63;;;7.70;99.90;;;;;;6168178;23;20162;-92
2021/03/17 04:37:49;;;;;;;51.90;33.70;;;7.70;99.90;;;;;;6167251;23;20205;-91
2021/03/17 04:40:34;;;;;;;;;;;;;;;;;;;;;
2021/03/17 04:43:05;;;;;;;56.93;35.13;;;7.70;99.90;;;;;;6067308;23;20222;-92
2021/03/17 04:45:34;;;;;;;51.30;34.50;;;7.80;99.90;;;;;;6169085;23;20194;-92
2021/03/17 04:48:03;;;;;;;51.10;33.40;;;7.70;99.90;;;;;;6167001;23;20155;-92
2021/03/17 04:50:32;;;;;;;50.40;32.73;;;7.60;99.90;;;;;;6166146;23;20234;-93
2021/03/17 04:53:14;;;;;;;;;;;;;;;;;;;;;
2021/03/17 04:55:58;;;;;;;52.37;32.73;;;7.40;99.90;;;;;;6067121;23;20242;-93
2021/03/17 04:58:40;;;;;;;50.70;33.73;;;7.40;99.90;;;;;;6167673;23;20158;-93
2021/03/17 05:02:13;;;;;;;;;;;;;;;;;;;;;
2021/03/17 05:05:15;;;;;;;49.70;32.77;;;7.40;99.90;;;;;;6080568;23;20170;-90
2021/03/17 05:07:57;;;;;;;49.60;32.50;;;7.30;99.90;;;;;;6167331;23;20159;-92
2021/03/17 05:10:47;;;;;;;52.53;31.60;;;7.30;99.90;;;;;;6167756;23;20182;-92
2021/03/17 05:13:23;;;;;;;47.87;30.93;;;7.30;99.90;;;;;;6133965;23;20221;-93
2021/03/17 05:16:25;;;;;;;46.23;32.23;;;7.40;99.90;;;;;;6122249;23;20187;-94
2021/03/17 05:19:13;;;;;;;;;;;;;;;;;;;;;
2021/03/17 05:22:16;;;;;;;44.43;28.07;;;7.40;99.90;;;;;;6079256;23;20183;-92
2021/03/17 05:25:47;;;;;;;40.43;27.97;;;7.40;99.90;;;;;;6080146;23;20187;-93
2021/03/17 05:28:50;;;;;;;41.00;27.40;;;7.40;99.90;;;;;;6169896;23;20179;-91
2021/03/17 05:32:02;;;;;;;41.33;27.63;;;7.50;99.90;;;;;;6069237;23;20136;-91
2021/03/17 05:35:33;;;;;;;;;;;;;;;;;;;;;
2021/03/17 05:45:55;;;;;;;32.43;20.90;;;7.60;99.90;;;;;;6024398;23;20192;-90
2021/03/17 05:52:13;;;;;;;26.93;18.67;;;7.50;99.90;;;;;;6028952;23;20204;-90
2021/03/17 06:05:29;;;;;;;32.57;21.70;;;7.50;99.90;;;;;;6073472;23;20256;-92
2021/03/17 06:08:25;;;;;;;34.13;21.20;;;7.50;99.90;;;;;;6167654;23;20218;-92
2021/03/17 06:18:37;;;;;;;31.73;21.23;;;7.50;99.90;;;;;;6101930;23;20271;-92
2021/03/17 06:24:50;;;;;;;;;;;;;;;;;;;;;
2021/03/17 06:28:05;;;;;;;30.07;18.80;;;7.50;99.90;;;;;;6071333;23;20198;-91
2021/03/17 06:31:00;;;;;;;27.47;19.43;;;7.50;99.90;;;;;;6138773;23;20153;-92
2021/03/17 06:33:41;;;;;;;27.17;18.07;;;7.50;99.90;;;;;;6148447;23;20177;-91
2021/03/17 06:36:43;;;;;;;26.13;18.80;;;7.60;99.90;;;;;;6140151;23;20157;-93
2021/03/17 06:39:17;;;;;;;25.23;17.33;;;7.60;99.90;;;;;;6132413;23;20223;-92
2021/03/17 06:42:04;;;;;;;30.93;17.40;;;7.70;99.90;;;;;;6158570;23;20169;-92
2021/03/17 06:44:30;;;;;;;25.33;15.47;;;7.70;99.90;;;;;;6181868;23;20159;-91
2021/03/17 06:47:25;;;;;;;26.50;17.17;;;7.70;99.90;;;;;;6112816;23;20155;-91
2021/03/17 06:49:53;;;;;;;26.23;16.67;;;7.60;99.90;;;;;;6180570;23;20187;-91
2021/03/17 06:52:48;;;;;;;24.10;14.50;;;7.70;99.90;;;;;;6166568;23;20159;-91
2021/03/17 06:55:23;;;;;;;23.50;14.10;;;7.80;99.90;;;;;;6166599;23;20163;-91
2021/03/17 06:58:03;;;;;;;19.43;13.50;;;7.90;99.90;;;;;;6176609;23;20217;-92
2021/03/17 07:01:31;;;;;;;25.57;12.40;;;7.80;99.90;;;;;;6084810;23;20175;-92
2021/03/17 07:04:56;;;;;;;;;;;;;;;;;;;;;
2021/03/17 07:08:05;;;;;;;;;;;;;;;;;;;;;
2021/03/17 07:10:42;;;;;;;;;;;;;;;;;;;;;
2021/03/17 07:13:40;;;;;;;20.67;10.80;;;8.00;99.90;;;;;;6067779;23;20214;-92
2021/03/17 07:16:59;;;;;;;21.10;11.27;;;8.10;99.90;;;;;;6173485;23;20187;-93
2021/03/17 07:19:41;;;;;;;19.13;9.33;;;8.20;99.90;;;;;;6043217;23;20184;-93
2021/03/17 15:47:44;;;;;;;10.90;2.70;;;16.90;82.10;;;;;;6158380;23;20213;-92
2021/03/17 15:50:29;;;;;;;16.43;2.97;;;16.60;82.30;;;;;;6204369;23;20195;-91
2021/03/17 15:53:30;;;;;;;8.73;2.87;;;15.90;83.90;;;;;;6197587;23;20170;-92
2021/03/17 15:56:32;;;;;;;8.20;2.70;;;15.40;85.50;;;;;;6202234;23;20563;-91
2021/03/17 15:59:12;;;;;;;17.07;3.20;;;14.80;88.80;;;;;;6198921;23;20239;-92
2021/03/17 16:01:53;;;;;;;18.27;3.40;;;14.10;90.20;;;;;;6200341;23;20148;-92
